createdAt,value
2023-04-23T00:02:58.436Z,30.40
2023-04-23T00:06:56.817Z,30.40
2023-04-23T00:10:33.659Z,30.30
2023-04-23T00:18:19.730Z,30.30
2023-04-23T00:22:40.810Z,30.30
2023-04-23T00:29:43.357Z,30.20
2023-04-23T00:36:27.016Z,30.20
2023-04-23T00:39:38.718Z,30.20
2023-04-23T00:42:41.584Z,30.20
2023-04-23T00:45:55.062Z,30.10
2023-04-23T00:49:00.242Z,30.10
2023-04-23T00:52:07.733Z,30.10
2023-04-23T00:55:23.876Z,30.10
2023-04-23T00:58:26.805Z,30.10
2023-04-23T01:01:30.599Z,30.10
2023-04-23T01:04:44.209Z,30.10
2023-04-23T01:07:47.769Z,30.10
2023-04-23T01:10:49.798Z,30.10
2023-04-23T01:14:00.993Z,30.10
2023-04-23T01:17:11.809Z,30.10
2023-04-23T01:20:17.298Z,30.10
2023-04-23T01:23:19.883Z,30.10
2023-04-23T01:26:28.533Z,30.10
2023-04-23T01:29:38.571Z,30.10
2023-04-23T01:32:45.063Z,30.10
2023-04-23T01:35:54.609Z,30.10
2023-04-23T01:38:57.141Z,30.00
2023-04-23T01:42:00.381Z,30.00
2023-04-23T01:45:12.050Z,30.00
2023-04-23T01:48:23.859Z,30.00
2023-04-23T01:51:27.104Z,29.90
2023-04-23T01:54:37.336Z,30.00
2023-04-23T01:57:42.350Z,29.90
2023-04-23T02:00:50.342Z,29.80
2023-04-23T02:08:32.165Z,29.80
2023-04-23T02:12:03.608Z,29.70
2023-04-23T02:15:30.069Z,29.70
2023-04-23T02:19:08.200Z,29.70
2023-04-23T02:22:31.721Z,29.70
2023-04-23T02:25:59.202Z,29.70
2023-04-23T02:29:16.621Z,29.70
2023-04-23T02:32:23.781Z,29.80
2023-04-23T02:35:30.695Z,29.80
2023-04-23T02:39:14.184Z,29.80
2023-04-23T02:42:22.757Z,29.80
2023-04-23T02:45:24.734Z,29.80
2023-04-23T02:48:27.548Z,29.80
2023-04-23T02:51:56.382Z,29.80
2023-04-23T02:55:13.245Z,29.80
2023-04-23T02:58:16.039Z,29.80
2023-04-23T03:01:18.313Z,29.80
2023-04-23T03:04:37.362Z,29.80
2023-04-23T03:07:51.703Z,29.80
2023-04-23T03:11:15.929Z,29.80
2023-04-23T03:14:55.726Z,29.80
2023-04-23T03:18:47.398Z,29.80
2023-04-23T03:22:21.957Z,29.80
2023-04-23T03:25:51.925Z,29.80
2023-04-23T03:29:06.270Z,29.70
2023-04-23T03:32:30.087Z,29.70
2023-04-23T03:36:00.688Z,29.70
2023-04-23T03:39:05.970Z,29.70
2023-04-23T03:46:21.319Z,29.80
2023-04-23T03:50:21.671Z,29.80
2023-04-23T03:57:25.204Z,29.90
2023-04-23T04:00:49.352Z,29.90
2023-04-23T04:04:30.071Z,29.90
2023-04-23T04:12:12.879Z,30.00
2023-04-23T04:23:13.812Z,30.30
2023-04-23T04:26:16.375Z,30.30
2023-04-23T04:29:20.087Z,30.40
2023-04-23T04:32:23.523Z,30.50
2023-04-23T04:35:25.852Z,30.50
2023-04-23T04:39:18.602Z,30.80
2023-04-23T04:43:16.604Z,31.80
2023-04-23T04:51:08.816Z,32.70
2023-04-23T04:54:35.623Z,32.60
2023-04-23T04:57:37.696Z,32.40
2023-04-23T05:00:39.921Z,32.30
2023-04-23T05:03:42.033Z,32.30
2023-04-23T05:07:36.962Z,32.60
2023-04-23T05:11:10.034Z,33.70
2023-04-23T05:19:09.373Z,36.10
2023-04-23T05:23:08.540Z,36.50
2023-04-23T05:26:11.326Z,35.90
2023-04-23T05:30:12.597Z,35.60
2023-04-23T05:33:14.814Z,35.40
2023-04-23T05:37:41.209Z,35.40
2023-04-23T05:45:28.279Z,36.20
2023-04-23T05:49:31.819Z,36.50
2023-04-23T05:52:52.255Z,37.00
2023-04-23T05:56:35.702Z,38.00
2023-04-23T05:59:55.792Z,38.70
2023-04-23T06:03:28.397Z,39.60
2023-04-23T06:06:47.304Z,39.80
2023-04-23T06:09:49.693Z,39.60
2023-04-23T06:12:51.662Z,39.80
2023-04-23T06:15:54.175Z,40.40
2023-04-23T06:18:56.897Z,41.00
2023-04-23T06:22:05.897Z,41.50
2023-04-23T06:25:15.362Z,42.00
2023-04-23T06:29:10.452Z,42.50
2023-04-23T06:32:31.310Z,42.90
2023-04-23T06:44:16.524Z,42.90
2023-04-23T07:00:00.802Z,42.40
2023-04-23T07:03:46.574Z,42.20
2023-04-23T07:15:50.318Z,41.40
2023-04-23T07:23:33.144Z,42.10
2023-04-23T07:27:21.206Z,42.70
2023-04-23T07:30:51.961Z,42.80
2023-04-23T07:35:11.297Z,42.80
2023-04-23T07:39:28.736Z,42.60
2023-04-23T07:43:07.248Z,42.60
2023-04-23T07:46:28.421Z,43.00
2023-04-23T07:49:38.970Z,43.00
2023-04-23T07:53:31.998Z,43.40
2023-04-23T07:57:20.212Z,43.30
2023-04-23T08:01:20.815Z,43.40
2023-04-23T08:04:50.734Z,43.20
2023-04-23T08:08:04.683Z,43.00
2023-04-23T08:11:23.684Z,42.70
2023-04-23T08:15:21.337Z,42.70
2023-04-23T08:19:04.878Z,42.50
2023-04-23T08:22:32.313Z,42.30
2023-04-23T08:30:40.403Z,40.50
2023-04-23T08:35:15.463Z,40.00
2023-04-23T09:13:13.271Z,35.50
2023-04-23T09:16:16.235Z,35.80
2023-04-23T09:24:13.179Z,35.60
2023-04-23T09:27:24.081Z,35.40
2023-04-23T09:30:27.540Z,36.00
2023-04-23T09:33:31.262Z,36.20
2023-04-23T09:37:36.777Z,36.40
2023-04-23T09:40:39.432Z,36.00
2023-04-23T09:47:22.083Z,36.00
2023-04-23T09:50:40.401Z,36.10
2023-04-23T09:53:46.356Z,36.60
2023-04-23T09:57:32.602Z,36.70
2023-04-23T10:02:07.764Z,36.20
2023-04-23T10:08:48.920Z,36.90
2023-04-23T10:11:55.629Z,36.60
2023-04-23T10:14:59.777Z,36.40
2023-04-23T10:18:04.251Z,36.50
2023-04-23T10:21:14.447Z,36.10
2023-04-23T10:24:20.802Z,36.00
2023-04-23T10:27:36.767Z,36.20
2023-04-23T10:30:48.154Z,36.40
2023-04-23T10:33:58.705Z,36.40
2023-04-23T10:37:02.456Z,36.60
2023-04-23T10:40:12.855Z,36.60
2023-04-23T10:43:15.656Z,37.20
2023-04-23T10:46:32.655Z,37.00
2023-04-23T10:49:34.841Z,36.50
2023-04-23T10:52:37.587Z,36.50
2023-04-23T10:55:39.998Z,37.30
2023-04-23T10:59:58.148Z,37.10
2023-04-23T11:08:18.771Z,37.40
2023-04-23T11:11:46.914Z,37.20
2023-04-23T11:14:50.376Z,37.90
2023-04-23T11:17:52.695Z,38.20
2023-04-23T11:20:57.009Z,38.70
2023-04-23T11:24:02.364Z,38.90
2023-04-23T11:27:09.517Z,39.00
2023-04-23T11:30:55.828Z,38.80
2023-04-23T11:33:58.014Z,38.60
2023-04-23T11:37:00.838Z,39.00
2023-04-23T11:40:14.208Z,39.30
2023-04-23T11:43:29.233Z,39.30
2023-04-23T11:46:31.858Z,39.20
2023-04-23T11:49:34.026Z,38.90
2023-04-23T11:52:37.857Z,38.90
2023-04-23T11:55:44.141Z,39.80
2023-04-23T11:58:46.420Z,40.40
2023-04-23T12:01:56.042Z,40.30
2023-04-23T12:06:12.788Z,40.10
2023-04-23T12:10:30.642Z,39.90
2023-04-23T12:32:57.136Z,39.50
2023-04-23T12:40:59.217Z,39.20
2023-04-23T12:44:01.223Z,39.50
2023-04-23T12:47:07.920Z,39.30
2023-04-23T12:50:10.560Z,38.90
2023-04-23T12:53:15.878Z,38.60
2023-04-23T13:01:35.163Z,38.10
2023-04-23T13:05:34.708Z,38.30
2023-04-23T13:09:14.963Z,38.30
2023-04-23T13:17:44.117Z,38.40
2023-04-23T13:22:33.679Z,38.80
2023-04-23T13:30:51.764Z,38.90
2023-04-23T13:39:01.743Z,38.40
2023-04-23T13:43:09.189Z,38.60
2023-04-23T14:03:12.627Z,38.10
2023-04-23T14:06:57.185Z,38.00
2023-04-23T14:10:48.592Z,38.00
2023-04-23T14:22:50.621Z,37.40
2023-04-23T14:27:20.867Z,37.20
2023-04-23T14:35:06.816Z,37.00
2023-04-23T14:39:08.639Z,37.10
2023-04-23T15:42:54.289Z,36.80
2023-04-23T15:46:27.320Z,36.80
2023-04-23T15:49:34.595Z,36.70
2023-04-23T15:53:24.496Z,36.70
2023-04-23T15:57:12.673Z,36.50
2023-04-23T16:05:27.257Z,35.10
2023-04-23T16:13:54.696Z,35.10
2023-04-23T16:17:25.673Z,35.20
2023-04-23T16:20:36.138Z,35.10
2023-04-23T16:23:38.450Z,35.10
2023-04-23T16:26:44.119Z,35.10
2023-04-23T16:29:46.952Z,35.30
2023-04-23T16:32:57.978Z,35.40
2023-04-23T16:36:15.087Z,35.50
2023-04-23T16:39:20.992Z,35.50
2023-04-23T16:42:24.223Z,35.50
2023-04-23T16:45:26.785Z,35.50
2023-04-23T16:48:29.144Z,35.50
2023-04-23T16:51:32.593Z,35.60
2023-04-23T16:54:36.104Z,35.60
2023-04-23T16:57:38.952Z,35.70
2023-04-23T17:00:41.247Z,35.70
2023-04-23T17:03:47.161Z,35.80
2023-04-23T17:06:49.503Z,35.80
2023-04-23T17:09:52.946Z,35.80
2023-04-23T17:13:00.289Z,35.70
2023-04-23T17:19:54.352Z,35.70
2023-04-23T17:22:57.116Z,35.60
2023-04-23T17:26:43.169Z,35.60
2023-04-23T17:29:59.341Z,35.60
2023-04-23T17:33:15.983Z,35.60
2023-04-23T17:46:18.288Z,35.30
2023-04-23T17:54:27.214Z,35.20
2023-04-23T18:02:07.819Z,35.10
2023-04-23T18:05:59.516Z,35.10
2023-04-23T18:14:38.991Z,34.80
2023-04-23T18:19:28.026Z,34.90
2023-04-23T18:22:25.759Z,34.90
2023-04-23T18:25:36.549Z,35.00
2023-04-23T18:29:02.531Z,34.90
2023-04-23T18:32:24.052Z,34.90
2023-04-23T18:36:16.825Z,34.90
2023-04-23T18:43:46.290Z,35.00
2023-04-23T18:47:26.879Z,35.00
2023-04-23T18:51:28.784Z,35.00
2023-04-23T18:55:19.069Z,34.90
2023-04-23T18:58:59.096Z,35.00
2023-04-23T19:11:09.637Z,35.00
2023-04-23T19:14:36.570Z,35.00
2023-04-23T19:18:05.714Z,35.00
2023-04-23T19:21:46.297Z,35.00
2023-04-23T19:25:04.816Z,35.00
2023-04-23T19:28:28.881Z,35.00
2023-04-23T19:36:14.598Z,35.10
2023-04-23T19:39:54.431Z,35.10
2023-04-23T20:28:28.782Z,34.90
2023-04-23T20:36:17.703Z,34.80
2023-04-23T20:39:24.270Z,34.80
2023-04-23T20:47:01.168Z,34.80
2023-04-23T20:50:28.176Z,34.80
2023-04-23T20:53:30.444Z,34.90
2023-04-23T21:05:47.508Z,34.80
2023-04-23T21:13:12.209Z,34.80
2023-04-23T21:17:05.938Z,34.80
2023-04-23T21:38:15.899Z,34.50
2023-04-23T21:41:52.595Z,34.40
2023-04-23T21:45:33.967Z,34.30
2023-04-23T21:49:30.754Z,34.20
2023-04-23T21:53:48.685Z,34.10
2023-04-23T21:57:49.144Z,34.00
2023-04-23T22:01:07.844Z,33.90
2023-04-23T22:04:36.532Z,33.80
2023-04-23T22:08:15.538Z,33.80
2023-04-23T22:11:22.654Z,33.80
2023-04-23T22:23:06.232Z,33.80
2023-04-23T22:26:29.418Z,33.40
2023-04-23T22:29:52.981Z,33.30
2023-04-23T22:32:56.790Z,33.30
2023-04-23T22:36:10.904Z,33.20
2023-04-23T22:39:13.279Z,33.10
2023-04-23T22:42:24.026Z,33.20
2023-04-23T22:46:08.056Z,33.20
2023-04-23T22:49:45.486Z,33.20
2023-04-23T22:52:48.210Z,33.10
2023-04-23T22:55:50.512Z,33.10
2023-04-23T23:02:43.265Z,33.10
2023-04-23T23:06:44.949Z,33.20
2023-04-23T23:13:45.433Z,33.30
2023-04-23T23:17:33.493Z,33.30
2023-04-23T23:20:41.068Z,33.10
2023-04-23T23:24:08.285Z,33.20
2023-04-23T23:31:09.625Z,33.30
2023-04-23T23:35:31.873Z,33.40
2023-04-23T23:39:15.536Z,33.50
2023-04-23T23:46:49.406Z,33.20
2023-04-23T23:49:51.354Z,33.30
2023-04-23T23:53:51.731Z,33.30
2023-04-23T23:58:17.843Z,33.40
